LNICK ENBR-ENSO
Flight info
| Callsign | LNICK |
|---|---|
| Flight time | N/A |
| Altitude | 7000 |
| Route | STD |
| Aircraft | BN2P/L-SFG/C |
Departure
| Time | 2026-05-05 17:55 |
|---|---|
| Airport | Bergen Airport, Flesland (ENBR) |
Arrival
| Time | N/A |
|---|---|
| Airport | Stord Airport, Sørstokken (ENSO) |
| Time | Latitude | Longitude | Altitude | Speed | Heading |
|---|---|---|---|---|---|
| 2026-05-05 17:45 | 60.30079 | 5.22706 | 170 ft | 0 kts | 349° |
| 2026-05-05 17:48 | 60.30080 | 5.22706 | 170 ft | 0 kts | 349° |
| 2026-05-05 17:48 | 60.30079 | 5.22706 | 170 ft | 0 kts | 349° |
| 2026-05-05 17:50 | 60.30084 | 5.22708 | 170 ft | 4 kts | 25° |
| 2026-05-05 17:50 | 60.30046 | 5.22756 | 170 ft | 12 kts | 188° |
| 2026-05-05 17:50 | 60.29938 | 5.22690 | 164 ft | 17 kts | 199° |
| 2026-05-05 17:50 | 60.29830 | 5.22607 | 160 ft | 18 kts | 210° |
| 2026-05-05 17:51 | 60.29754 | 5.22367 | 155 ft | 19 kts | 263° |
| 2026-05-05 17:51 | 60.29734 | 5.22130 | 149 ft | 15 kts | 261° |
| 2026-05-05 17:51 | 60.29673 | 5.22021 | 146 ft | 11 kts | 170° |
| 2026-05-05 17:51 | 60.29587 | 5.22052 | 148 ft | 20 kts | 171° |
| 2026-05-05 17:52 | 60.29412 | 5.22113 | 152 ft | 24 kts | 170° |
| 2026-05-05 17:52 | 60.29259 | 5.22164 | 157 ft | 23 kts | 169° |
| 2026-05-05 17:52 | 60.29128 | 5.22210 | 160 ft | 15 kts | 169° |
| 2026-05-05 17:52 | 60.29035 | 5.22240 | 163 ft | 16 kts | 171° |
| 2026-05-05 17:53 | 60.28931 | 5.22254 | 164 ft | 12 kts | 212° |
| 2026-05-05 17:53 | 60.28914 | 5.22138 | 161 ft | 8 kts | 260° |
| 2026-05-05 17:53 | 60.28934 | 5.21952 | 159 ft | 12 kts | 339° |
| 2026-05-05 17:53 | 60.28952 | 5.21943 | 159 ft | 0 kts | 348° |
| 2026-05-05 17:54 | 60.28965 | 5.21938 | 159 ft | 18 kts | 349° |
| 2026-05-05 17:54 | 60.29369 | 5.21805 | 195 ft | 86 kts | 350° |
| 2026-05-05 17:54 | 60.30018 | 5.21634 | 471 ft | 103 kts | 350° |
| 2026-05-05 17:54 | 60.30770 | 5.21504 | 742 ft | 114 kts | 352° |
| 2026-05-05 17:55 | 60.31554 | 5.21387 | 1009 ft | 112 kts | 350° |
| 2026-05-05 17:55 | 60.32326 | 5.21246 | 1269 ft | 113 kts | 351° |
| 2026-05-05 17:55 | 60.33112 | 5.21138 | 1527 ft | 115 kts | 353° |
| 2026-05-05 17:55 | 60.33829 | 5.20549 | 1775 ft | 114 kts | 314° |
| 2026-05-05 17:56 | 60.34076 | 5.19066 | 2031 ft | 119 kts | 269° |
| 2026-05-05 17:56 | 60.33670 | 5.17584 | 2291 ft | 128 kts | 224° |
| 2026-05-05 17:56 | 60.32854 | 5.16847 | 2553 ft | 131 kts | 203° |
| 2026-05-05 17:56 | 60.31987 | 5.16256 | 2819 ft | 131 kts | 202° |
| 2026-05-05 17:57 | 60.31134 | 5.15676 | 3073 ft | 131 kts | 202° |
| 2026-05-05 17:57 | 60.30280 | 5.15086 | 3330 ft | 131 kts | 203° |
| 2026-05-05 17:57 | 60.29417 | 5.14519 | 3587 ft | 131 kts | 195° |
| 2026-05-05 17:57 | 60.28496 | 5.14608 | 3849 ft | 133 kts | 173° |
| 2026-05-05 17:58 | 60.27587 | 5.14894 | 4107 ft | 133 kts | 173° |
| 2026-05-05 17:58 | 60.26680 | 5.15191 | 4364 ft | 133 kts | 173° |
| 2026-05-05 17:58 | 60.25764 | 5.15500 | 4625 ft | 132 kts | 173° |
| 2026-05-05 17:58 | 60.24865 | 5.15807 | 4882 ft | 132 kts | 173° |
| 2026-05-05 17:59 | 60.23956 | 5.16126 | 5143 ft | 132 kts | 173° |
| 2026-05-05 17:59 | 60.23052 | 5.16443 | 5404 ft | 132 kts | 173° |
| 2026-05-05 17:59 | 60.22158 | 5.16756 | 5667 ft | 132 kts | 173° |
| 2026-05-05 17:59 | 60.21251 | 5.17075 | 5922 ft | 132 kts | 173° |
| 2026-05-05 18:00 | 60.20312 | 5.17406 | 5988 ft | 145 kts | 173° |
| 2026-05-05 18:00 | 60.19287 | 5.17758 | 5992 ft | 152 kts | 172° |
| 2026-05-05 18:00 | 60.18246 | 5.18111 | 5991 ft | 152 kts | 173° |
| 2026-05-05 18:00 | 60.17198 | 5.18464 | 5986 ft | 152 kts | 172° |
| 2026-05-05 18:01 | 60.16164 | 5.18810 | 5986 ft | 151 kts | 172° |
| 2026-05-05 18:01 | 60.15128 | 5.19156 | 5987 ft | 151 kts | 172° |
| 2026-05-05 18:01 | 60.14086 | 5.19501 | 5988 ft | 151 kts | 172° |
| 2026-05-05 18:01 | 60.13052 | 5.19843 | 5989 ft | 151 kts | 172° |
| 2026-05-05 18:02 | 60.12009 | 5.20191 | 5990 ft | 152 kts | 172° |
| 2026-05-05 18:02 | 60.10978 | 5.20540 | 5992 ft | 152 kts | 172° |
| 2026-05-05 18:02 | 60.09939 | 5.20887 | 5991 ft | 152 kts | 173° |
| 2026-05-05 18:02 | 60.08888 | 5.21244 | 5991 ft | 152 kts | 173° |
| 2026-05-05 18:03 | 60.07850 | 5.21600 | 5994 ft | 152 kts | 173° |
| 2026-05-05 18:03 | 60.06817 | 5.21961 | 5993 ft | 152 kts | 173° |
| 2026-05-05 18:03 | 60.05768 | 5.22335 | 5995 ft | 152 kts | 173° |
| 2026-05-05 18:03 | 60.04728 | 5.22712 | 5996 ft | 151 kts | 173° |
| 2026-05-05 18:04 | 60.03692 | 5.23090 | 5997 ft | 151 kts | 172° |
| 2026-05-05 18:04 | 60.02658 | 5.23466 | 5893 ft | 157 kts | 172° |
| 2026-05-05 18:04 | 60.01564 | 5.23850 | 5637 ft | 159 kts | 173° |
| 2026-05-05 18:04 | 60.00475 | 5.24228 | 5384 ft | 160 kts | 172° |
| 2026-05-05 18:05 | 59.99383 | 5.24602 | 5131 ft | 160 kts | 173° |
| 2026-05-05 18:05 | 59.98280 | 5.24977 | 4876 ft | 160 kts | 173° |
| 2026-05-05 18:05 | 59.97188 | 5.25347 | 4624 ft | 160 kts | 172° |
| 2026-05-05 18:05 | 59.96086 | 5.25712 | 4368 ft | 161 kts | 172° |
| 2026-05-05 18:06 | 59.95006 | 5.26071 | 4115 ft | 157 kts | 172° |
| 2026-05-05 18:06 | 59.94281 | 5.26306 | 3941 ft | 156 kts | 172° |
| 2026-05-05 18:06 | 59.92873 | 5.26780 | 3600 ft | 154 kts | 170° |
| 2026-05-05 18:06 | 59.91834 | 5.27236 | 3340 ft | 152 kts | 167° |
| 2026-05-05 18:07 | 59.91539 | 5.27383 | 3269 ft | 152 kts | 167° |